ADDS METAR Data INFO
IDs: Format: Raw Decoded Include TAF

Data at: 0301 UTC 17 Jan 2018

KD50 170255Z AUTO 20022KT 10SM CLR M13/M19 A3007 RMK AO2
KD50 170235Z AUTO 20022KT 10SM CLR M12/M19 A3008 RMK AO2
KD50 170215Z AUTO 20021G26KT 10SM CLR M12/M19 A3009 RMK AO2
KD50 170155Z AUTO 20019G24KT 10SM CLR M12/M19 A3010 RMK AO2
KD50 170135Z AUTO 20018KT 10SM CLR M13/M19 A3011 RMK AO2
KD50 170115Z AUTO 20019G25KT 10SM CLR M13/M19 A3012 RMK AO2
KD50 170055Z AUTO 20017KT 10SM CLR M13/M19 A3014 RMK AO2
KD50 170035Z AUTO 20017KT 10SM CLR M13/M19 A3015 RMK AO2
KD50 170015Z AUTO 20015G20KT 10SM CLR M12/M18 A3016 RMK AO2
KD50 162355Z AUTO 20019KT 10SM CLR M12/M19 A3017 RMK AO2
KD50 162335Z AUTO 20017G22KT 10SM CLR M12/M19 A3019 RMK AO2
KD50 162315Z AUTO 20015G21KT 10SM CLR M12/M19 A3020 RMK AO2
KD50 162255Z AUTO 21015KT 10SM CLR M11/M19 A3020 RMK AO2
KD50 162235Z AUTO 21016G21KT 10SM CLR M11/M19 A3022 RMK AO2
KD50 162215Z AUTO 20017KT 10SM CLR M11/M19 A3022 RMK AO2
KD50 162155Z AUTO 20015KT 10SM CLR M12/M19 A3023 RMK AO2
KD50 162135Z AUTO 20018G26KT 10SM CLR M12/M19 A3023 RMK AO2
KD50 162115Z AUTO 20019KT 10SM CLR M12/M19 A3023 RMK AO2
KD50 162055Z AUTO 20017KT 10SM CLR M12/M20 A3025 RMK AO2
KD50 162035Z AUTO 20013G22KT 10SM CLR M13/M20 A3026 RMK AO2
KD50 162015Z AUTO 20017KT 10SM CLR M13/M20 A3027 RMK AO2
KD50 161955Z AUTO 21017KT 10SM CLR M13/M20 A3028 RMK AO2
KD50 161935Z AUTO 21015G22KT 10SM CLR M13/M20 A3029 RMK AO2
KD50 161915Z AUTO 21020G26KT 10SM CLR M14/M21 A3029 RMK AO2
KD50 161855Z AUTO 20024KT 10SM CLR M14/M21 A3028 RMK AO2
KD50 161835Z AUTO 21020KT 10SM CLR M15/M21 A3031 RMK AO2
KD50 161815Z AUTO 21021KT 10SM CLR M15/M22 A3033 RMK AO2
KD50 161755Z AUTO 21018KT 10SM CLR M16/M22 A3036 RMK AO2
KD50 161735Z AUTO 21019KT 10SM CLR M16/M22 A3037 RMK AO2
KD50 161715Z AUTO 21020KT 10SM CLR M16/M23 A3037 RMK AO2
KD50 161655Z AUTO 21019G25KT 10SM CLR M17/M23 A3036 RMK AO2
KD50 161635Z AUTO 21022KT 10SM CLR M17/M23 A3036 RMK AO2
KD50 161615Z AUTO 21023KT 10SM CLR M18/M23 A3036 RMK AO2
KD50 161555Z AUTO 21017KT 10SM CLR M18/M23 A3039 RMK AO2
KD50 161535Z AUTO 20018KT 10SM CLR M19/M23 A3040 RMK AO2
KD50 161515Z AUTO 20017G22KT 10SM CLR M19/M24 A3042 RMK AO2
KD50 161455Z AUTO 20017KT 10SM CLR M19/M24 A3043 RMK AO2
KD50 161435Z AUTO 20017G24KT 10SM CLR M19/M24 A3043 RMK AO2
KD50 161415Z AUTO 20017G25KT 10SM CLR M19/M24 A3045 RMK AO2
KD50 161355Z AUTO 20018KT 10SM CLR M20/M24 A3046 RMK AO2
KD50 161335Z AUTO 21019KT 10SM CLR M20/M24 A3046 RMK AO2
KD50 161315Z AUTO 20015G21KT 10SM CLR M20/M25 A3049 RMK AO2
KD50 161255Z AUTO 21015G21KT 10SM CLR M20/M25 A3049 RMK AO2
KD50 161235Z AUTO 21016G24KT 10SM CLR M20/M25 A3051 RMK AO2
KD50 161215Z AUTO 21015KT 10SM CLR M20/M25 A3051 RMK AO2
KD50 161155Z AUTO 20014G21KT 10SM CLR M21/M25 A3052 RMK AO2
KD50 161135Z AUTO 20020KT 10SM CLR M21/M25 A3052 RMK AO2
KD50 161115Z AUTO 21021G26KT 10SM CLR M21/M26 A3052 RMK AO2
KD50 161055Z AUTO 21015G23KT 10SM CLR M22/M26 A3056 RMK AO2
KD50 161035Z AUTO 20017KT 10SM CLR M22/M26 A3058 RMK AO2
KD50 161015Z AUTO 20018G24KT 10SM CLR M23/M27 A3059 RMK AO2
KD50 160955Z AUTO 21018KT 10SM CLR M23/M27 A3060 RMK AO2
KD50 160935Z AUTO 21014KT 10SM CLR M24/M27 A3062 RMK AO2
KD50 160915Z AUTO 20013KT 10SM CLR M24/M28 A3064 RMK AO2
KD50 160855Z AUTO 20013KT 10SM CLR M25/M28 A3062 RMK AO2
KD50 160835Z AUTO 20013KT 10SM CLR M25/M29 A3064 RMK AO2
KD50 160815Z AUTO 20017KT 10SM CLR M25/M29 A3064 RMK AO2
KD50 160755Z AUTO 20015KT 10SM CLR M25/M29 A3065 RMK AO2
KD50 160735Z AUTO 21015KT 10SM CLR M25/M29 A3067 RMK AO2
KD50 160715Z AUTO 21014KT 10SM CLR M26/M29 A3068 RMK AO2
KD50 160655Z AUTO 21014KT 10SM CLR M26/M29 A3070 RMK AO2
KD50 160635Z AUTO 21010G15KT 10SM CLR M26/M30 A3070 RMK AO2
KD50 160615Z AUTO 21010KT 10SM CLR M26/M30 A3071 RMK AO2
KD50 160555Z AUTO 20010KT 10SM CLR M26/M29 A3071 RMK AO2
KD50 160535Z AUTO 21011KT 10SM CLR M26/M30 A3072 RMK AO2
KD50 160515Z AUTO 20012KT 10SM CLR M26/M30 A3072 RMK AO2
KD50 160455Z AUTO 20011KT 10SM CLR M26/M30 A3072 RMK AO2
KD50 160435Z AUTO 20010KT 10SM CLR M26/M30 A3073 RMK AO2
KD50 160415Z AUTO 20010KT 10SM CLR M26/M30 A3074 RMK AO2
KD50 160355Z AUTO 20010KT 10SM CLR M26/M29 A3075 RMK AO2
KD50 160335Z AUTO 21009KT 10SM CLR M26/M30 A3075 RMK AO2
KD50 160315Z AUTO 22009KT 10SM CLR M26/M30 A3076 RMK AO2
KD50 160255Z AUTO 21008KT 10SM CLR M26/M30 A3077 RMK AO2
KD50 160235Z AUTO 20008KT 10SM CLR M26/M29 A3078 RMK AO2
KD50 160215Z AUTO 20011KT 10SM CLR M26/M29 A3078 RMK AO2
KD50 160155Z AUTO 20009KT 10SM CLR M26/M29 A3079 RMK AO2
KD50 160135Z AUTO 20007KT 10SM CLR M26/M29 A3080 RMK AO2
KD50 160115Z AUTO 21005KT 10SM CLR M25/M29 A3081 RMK AO2
KD50 160055Z AUTO 21008KT 10SM CLR M25/M28 A3081 RMK AO2
KD50 160035Z AUTO 21005KT 10SM CLR M25/M28 A3082 RMK AO2
KD50 160015Z AUTO 21005KT 10SM CLR M25/M28 A3082 RMK AO2
KD50 152355Z AUTO 21007KT 10SM CLR M24/M28 A3083 RMK AO2
KD50 152335Z AUTO 20006KT 10SM CLR M23/M27 A3083 RMK AO2
KD50 152315Z AUTO 23004KT 10SM CLR M22/M27 A3083 RMK AO2
KD50 152255Z AUTO 25004KT 10SM CLR M21/M26 A3083 RMK AO2
KD50 152235Z AUTO 00000KT 10SM CLR M21/M26 A3083 RMK AO2
KD50 152215Z AUTO 26004KT 10SM CLR M21/M26 A3083 RMK AO2
KD50 152155Z AUTO 28007KT 10SM CLR M21/M26 A3083 RMK AO2
KD50 152135Z AUTO 28008KT 10SM CLR M21/M26 A3083 RMK AO2
KD50 152115Z AUTO 27005KT 10SM CLR M21/M26 A3083 RMK AO2
KD50 152055Z AUTO 28004KT 10SM CLR M21/M26 A3083 RMK AO2
KD50 152035Z AUTO 28005KT 10SM CLR M21/M26 A3083 RMK AO2
KD50 152015Z AUTO 28006KT 10SM CLR M21/M26 A3084 RMK AO2
KD50 151955Z AUTO 26004KT 10SM CLR M22/M27 A3084 RMK AO2
KD50 151935Z AUTO 27006KT 10SM CLR M22/M27 A3085 RMK AO2
KD50 151915Z AUTO 27003KT 10SM CLR M23/M27 A3087 RMK AO2
KD50 151855Z AUTO 00000KT 10SM CLR M23/M28 A3087 RMK AO2
KD50 151835Z AUTO 27004KT 10SM CLR M24/M28 A3087 RMK AO2
KD50 151815Z AUTO 31006KT 10SM CLR M24/M28 A3088 RMK AO2
KD50 151755Z AUTO 30005KT 10SM CLR M24/M28 A3089 RMK AO2
KD50 151735Z AUTO 33005KT 10SM CLR M24/M28 A3089 RMK AO2
KD50 151715Z AUTO 32006KT 10SM CLR M25/M29 A3089 RMK AO2
KD50 151655Z AUTO 33007KT 10SM CLR M25/M29 A3088 RMK AO2
KD50 151635Z AUTO 32008KT 10SM CLR M26/M29 A3087 RMK AO2
KD50 151615Z AUTO 33008KT 10SM CLR M26/M30 A3086 RMK AO2
KD50 151555Z AUTO 34011KT 10SM CLR M27/M30 A3085 RMK AO2
KD50 151535Z AUTO 33010KT 10SM CLR M27/M31 A3084 RMK AO2
KD50 151515Z AUTO 32012KT 10SM CLR M27/M31 A3085 RMK AO2